Decoded Metar for KLGU (LOGAN in UT, USA) (IATA:LGU) | Meteo·Mobile Aviation Weather
aviador You're here:

KLGU Decoded Metar

LOGAN in UT, USA
Report Time2019-04-23 07:51:00
UTC Time2019-04-23 08:46:11
Flight Rules vfr VFR
WindCalm
Visibility9999 m
Phenomena:N/A
Clouds:N/A
Expected CloudBase > 1,600 ft AGL from Temp-Dew spread
CeilingNone
Temp08°C (ISA +2)
Dew Point04°C (76% RH)
AAT6.7°C
QNH1023 hPa
Density Alt4,462 ft
Elevation4,457 ft
Report Wrong Elevation
Raw Report
KLGU 230751Z AUTO 00000KT 10SM CLR 08/04 A3020 RMK AO2 SLP205
T00780044=

Extra information for KLGU:More info

Metar Taf Metar & Taf Last 4 Metars F.Rules Stats Wind Profile Meteogram Temp Stats Airport Information Weather charts Add Link Nearby VenuesMetar ALERT Operation Metar Decoded Social comments

AIRNAV info for KLGU